createdAt,value
2022-11-30T00:00:52.668Z,101385.13
2022-11-30T00:05:56.212Z,101388.41
2022-11-30T00:10:59.684Z,101385.47
2022-11-30T00:16:04.752Z,101390.72
2022-11-30T00:21:09.723Z,101392.50
2022-11-30T00:26:15.095Z,101379.69
2022-11-30T00:31:20.856Z,101391.72
2022-11-30T00:36:24.441Z,101390.03
2022-11-30T00:41:27.949Z,101394.53
2022-11-30T00:46:32.850Z,101394.06
2022-11-30T00:51:36.361Z,101387.03
2022-11-30T00:56:39.908Z,101380.19
2022-11-30T01:01:44.846Z,101384.66
2022-11-30T01:06:48.349Z,101387.03
2022-11-30T01:11:52.504Z,101382.13
2022-11-30T01:16:57.426Z,101384.81
2022-11-30T01:22:00.921Z,101384.56
2022-11-30T01:27:04.817Z,101388.91
2022-11-30T01:32:09.778Z,101392.91
2022-11-30T01:37:13.276Z,101391.31
2022-11-30T01:42:18.744Z,101386.19
2022-11-30T01:47:27.191Z,101395.06
2022-11-30T01:52:34.345Z,101407.09
2022-11-30T01:57:39.473Z,101404.78
2022-11-30T02:02:51.277Z,101401.19
2022-11-30T02:07:55.398Z,101395.31
2022-11-30T02:13:11.473Z,101390.78
2022-11-30T02:18:20.734Z,101397.97
2022-11-30T02:23:49.730Z,101410.53
2022-11-30T02:29:04.151Z,101399.97
2022-11-30T02:34:08.904Z,101388.47
2022-11-30T02:39:12.948Z,101386.31
2022-11-30T02:44:18.155Z,101390.72
2022-11-30T02:49:27.233Z,101395.91
2022-11-30T02:54:30.643Z,101391.16
2022-11-30T02:59:35.600Z,101407.88
2022-11-30T03:04:39.206Z,101408.63
2022-11-30T03:09:42.742Z,101405.38
2022-11-30T03:14:47.807Z,101410.94
2022-11-30T03:19:51.589Z,101414.25
2022-11-30T03:24:54.952Z,101414.00
2022-11-30T03:29:59.784Z,101413.84
2022-11-30T03:35:03.229Z,101416.03
2022-11-30T03:40:08.392Z,101424.22
2022-11-30T03:45:13.507Z,101425.94
2022-11-30T03:50:17.172Z,101424.41
2022-11-30T03:55:20.628Z,101425.56
2022-11-30T04:00:25.589Z,101429.44
2022-11-30T04:05:29.154Z,101427.97
2022-11-30T04:10:32.729Z,101430.88
2022-11-30T04:15:37.564Z,101435.72
2022-11-30T04:20:40.978Z,101441.72
2022-11-30T04:25:44.563Z,101446.31
2022-11-30T04:30:49.461Z,101451.75
2022-11-30T04:35:55.036Z,101446.06
2022-11-30T04:40:58.451Z,101447.44
2022-11-30T04:46:04.034Z,101443.66
2022-11-30T04:51:09.181Z,101452.09
2022-11-30T04:56:12.872Z,101456.31
2022-11-30T05:01:17.807Z,101455.63
2022-11-30T05:06:21.274Z,101460.13
2022-11-30T05:11:24.709Z,101458.34
2022-11-30T05:16:29.610Z,101463.28
2022-11-30T05:21:33.485Z,101462.06
2022-11-30T05:26:37.225Z,101478.84
2022-11-30T05:31:42.057Z,101476.28
2022-11-30T05:36:45.615Z,101479.31
2022-11-30T05:41:49.182Z,101479.84
2022-11-30T05:46:54.168Z,101483.28
2022-11-30T05:51:57.597Z,101488.72
2022-11-30T05:57:01.193Z,101495.38
2022-11-30T06:02:06.130Z,101490.16
2022-11-30T06:07:11.968Z,101503.91
2022-11-30T06:12:15.459Z,101496.38
2022-11-30T06:17:20.377Z,101492.44
2022-11-30T06:22:23.793Z,101499.56
2022-11-30T06:27:31.426Z,101498.78
2022-11-30T06:32:36.273Z,101498.44
2022-11-30T06:37:39.801Z,101515.00
2022-11-30T06:42:43.256Z,101519.94
2022-11-30T06:47:48.190Z,101524.47
2022-11-30T06:52:51.640Z,101535.22
2022-11-30T06:57:55.116Z,101534.44
2022-11-30T07:03:00.097Z,101535.81
2022-11-30T07:08:03.845Z,101538.03
2022-11-30T07:13:07.425Z,101548.97
2022-11-30T07:18:12.796Z,101550.34
2022-11-30T07:23:33.997Z,101560.69
2022-11-30T07:28:39.253Z,101565.81
2022-11-30T07:33:44.341Z,101570.06
2022-11-30T07:38:48.182Z,101562.22
2022-11-30T07:43:51.853Z,101568.00
2022-11-30T07:48:56.800Z,101563.34
2022-11-30T07:54:00.680Z,101571.91
2022-11-30T07:59:04.689Z,101582.09
2022-11-30T08:04:13.751Z,101569.38
2022-11-30T08:09:20.642Z,101578.88
2022-11-30T08:14:24.482Z,101571.19
2022-11-30T08:19:29.627Z,101578.75
2022-11-30T08:24:33.208Z,101582.06
2022-11-30T08:29:36.763Z,101588.19
2022-11-30T08:34:44.402Z,101578.47
2022-11-30T08:39:47.951Z,101593.06
2022-11-30T08:44:51.397Z,101592.97
2022-11-30T08:49:56.349Z,101602.47
2022-11-30T08:54:59.817Z,101612.69
2022-11-30T09:00:03.760Z,101622.19
2022-11-30T09:05:09.162Z,101621.31
2022-11-30T09:10:13.225Z,101623.03
2022-11-30T09:15:16.849Z,101618.44
2022-11-30T09:20:21.861Z,101617.38
2022-11-30T09:25:25.489Z,101629.34
2022-11-30T09:30:28.975Z,101627.72
2022-11-30T09:35:33.881Z,101633.75
2022-11-30T09:40:38.411Z,101630.38
2022-11-30T09:45:44.716Z,101614.97
2022-11-30T09:50:50.213Z,101615.47
2022-11-30T09:55:54.743Z,101618.81
2022-11-30T10:01:01.238Z,101611.66
2022-11-30T10:06:11.046Z,101615.09
2022-11-30T10:11:32.667Z,101613.91
2022-11-30T10:16:42.100Z,101615.81
2022-11-30T10:21:57.144Z,101623.59
2022-11-30T10:27:05.170Z,101618.00
2022-11-30T10:32:14.966Z,101616.56
2022-11-30T10:37:23.152Z,101610.81
2022-11-30T10:42:31.880Z,101610.63
2022-11-30T10:47:37.107Z,101614.09
2022-11-30T10:52:45.964Z,101609.13
2022-11-30T10:57:52.148Z,101609.03
2022-11-30T11:02:55.725Z,101615.56
2022-11-30T11:08:06.815Z,101624.81
2022-11-30T11:13:17.037Z,101628.53
2022-11-30T11:18:26.058Z,101626.34
2022-11-30T11:23:33.991Z,101629.41
2022-11-30T11:28:38.102Z,101634.97
2022-11-30T11:33:51.599Z,101634.38
2022-11-30T11:38:58.723Z,101634.81
2022-11-30T11:44:10.143Z,101638.59
2022-11-30T11:49:22.293Z,101634.38
2022-11-30T11:54:30.441Z,101639.50
2022-11-30T11:59:39.810Z,101630.25
2022-11-30T12:04:45.832Z,101639.13
2022-11-30T12:10:16.507Z,101636.94
2022-11-30T12:15:32.909Z,101627.16
2022-11-30T12:20:44.442Z,101632.16
2022-11-30T12:25:54.968Z,101640.50
2022-11-30T12:31:11.541Z,101645.97
2022-11-30T12:36:21.505Z,101642.84
2022-11-30T12:41:38.615Z,101655.31
2022-11-30T12:46:49.383Z,101656.28
2022-11-30T12:52:00.439Z,101661.94
2022-11-30T12:57:12.211Z,101656.78
2022-11-30T13:02:30.321Z,101659.88
2022-11-30T13:07:38.013Z,101650.06
2022-11-30T13:12:45.137Z,101656.00
2022-11-30T13:17:49.730Z,101662.09
2022-11-30T13:22:57.498Z,101667.06
2022-11-30T13:28:08.542Z,101657.66
2022-11-30T13:33:49.368Z,101662.69
2022-11-30T13:39:28.628Z,101663.22
2022-11-30T13:44:35.060Z,101663.47
2022-11-30T13:49:38.725Z,101665.34
2022-11-30T13:54:44.213Z,101662.47
2022-11-30T13:59:51.549Z,101655.97
2022-11-30T14:04:55.138Z,101662.22
2022-11-30T14:10:00.288Z,101668.34
2022-11-30T14:15:45.999Z,101679.78
2022-11-30T14:20:52.729Z,101686.53
2022-11-30T14:25:58.741Z,101682.81
2022-11-30T14:31:03.712Z,101681.00
2022-11-30T14:36:08.442Z,101672.34
2022-11-30T14:41:23.079Z,101677.34
2022-11-30T14:46:28.797Z,101689.44
2022-11-30T14:51:35.642Z,101685.03
2022-11-30T14:56:44.085Z,101695.59
2022-11-30T15:01:49.113Z,101687.91
2022-11-30T15:06:52.747Z,101698.00
2022-11-30T15:11:57.190Z,101701.44
2022-11-30T15:17:02.240Z,101702.25
2022-11-30T15:22:05.759Z,101705.34
2022-11-30T15:27:11.496Z,101705.69
2022-11-30T15:32:19.125Z,101694.41
2022-11-30T15:37:23.029Z,101708.78
2022-11-30T15:42:30.173Z,101708.25
2022-11-30T15:47:37.502Z,101706.97
2022-11-30T15:52:45.848Z,101709.69
2022-11-30T15:58:00.246Z,101709.72
2022-11-30T16:03:12.683Z,101715.19
2022-11-30T16:08:17.780Z,101720.19
2022-11-30T16:13:22.679Z,101724.97
2022-11-30T16:18:28.855Z,101726.44
2022-11-30T16:23:34.677Z,101728.38
2022-11-30T16:28:38.200Z,101732.56
2022-11-30T16:33:43.158Z,101732.47
2022-11-30T16:38:48.762Z,101747.00
2022-11-30T16:43:54.349Z,101748.03
2022-11-30T16:48:59.188Z,101741.13
2022-11-30T16:54:02.737Z,101748.19
2022-11-30T16:59:06.225Z,101755.72
2022-11-30T17:04:16.949Z,101757.94
2022-11-30T17:09:21.688Z,101760.03
2022-11-30T17:14:25.224Z,101758.63
2022-11-30T17:19:30.119Z,101769.31
2022-11-30T17:24:34.601Z,101778.28
2022-11-30T17:29:38.272Z,101776.72
2022-11-30T17:34:43.360Z,101782.63
2022-11-30T17:39:46.907Z,101797.41
2022-11-30T17:44:50.652Z,101796.34
2022-11-30T17:49:56.615Z,101791.50
2022-11-30T17:55:00.197Z,101798.91
2022-11-30T18:00:05.551Z,101792.94
2022-11-30T18:05:10.877Z,101801.38
2022-11-30T18:10:14.987Z,101807.28
2022-11-30T18:15:18.667Z,101810.94
2022-11-30T18:20:23.576Z,101822.47
2022-11-30T18:25:27.077Z,101821.91
2022-11-30T18:30:30.472Z,101810.19
2022-11-30T18:35:35.913Z,101814.88
2022-11-30T18:40:39.365Z,101824.00
2022-11-30T18:45:42.825Z,101822.81
2022-11-30T18:50:47.629Z,101826.25
2022-11-30T18:55:51.332Z,101830.00
2022-11-30T19:00:54.773Z,101835.78
2022-11-30T19:06:04.348Z,101841.06
2022-11-30T19:11:09.372Z,101831.69
2022-11-30T19:16:16.217Z,101844.94
2022-11-30T19:21:22.380Z,101842.19
2022-11-30T19:26:27.860Z,101840.91
2022-11-30T19:31:31.287Z,101843.47
2022-11-30T19:36:36.403Z,101849.78
2022-11-30T19:41:40.005Z,101861.84
2022-11-30T19:46:43.596Z,101866.75
2022-11-30T19:51:48.459Z,101865.91
2022-11-30T19:56:51.969Z,101859.28
2022-11-30T20:01:55.492Z,101859.13
2022-11-30T20:07:01.612Z,101864.19
2022-11-30T20:12:05.789Z,101868.78
2022-11-30T20:17:09.981Z,101871.44
2022-11-30T20:22:14.875Z,101866.00
2022-11-30T20:27:22.226Z,101869.44
2022-11-30T20:32:25.767Z,101877.69
2022-11-30T20:37:30.638Z,101877.50
2022-11-30T20:42:34.031Z,101886.97
2022-11-30T20:47:37.582Z,101880.00
2022-11-30T20:52:42.768Z,101891.97
2022-11-30T20:57:47.877Z,101886.38
2022-11-30T21:02:51.553Z,101898.69
2022-11-30T21:07:56.522Z,101888.25
2022-11-30T21:13:00.257Z,101886.69
2022-11-30T21:18:03.813Z,101892.84
2022-11-30T21:23:08.918Z,101888.00
2022-11-30T21:28:12.434Z,101891.97
2022-11-30T21:33:16.204Z,101889.78
2022-11-30T21:38:21.097Z,101893.22
2022-11-30T21:43:24.643Z,101894.03
2022-11-30T21:48:30.150Z,101887.47
2022-11-30T21:53:38.212Z,101892.34
2022-11-30T21:58:43.253Z,101892.84
2022-11-30T22:03:47.291Z,101890.19
2022-11-30T22:08:52.200Z,101893.94
2022-11-30T22:13:56.061Z,101902.09
2022-11-30T22:18:59.550Z,101898.22
2022-11-30T22:24:05.759Z,101895.34
2022-11-30T22:29:13.346Z,101910.34
2022-11-30T22:34:16.980Z,101903.50
2022-11-30T22:39:22.569Z,101896.34
2022-11-30T22:44:26.700Z,101904.72
2022-11-30T22:49:30.337Z,101898.28
2022-11-30T22:54:35.293Z,101899.22
2022-11-30T22:59:38.743Z,101899.84
2022-11-30T23:04:42.173Z,101895.78
2022-11-30T23:09:47.337Z,101893.47
2022-11-30T23:14:50.889Z,101891.91
2022-11-30T23:19:54.378Z,101893.09
2022-11-30T23:24:59.274Z,101887.34
2022-11-30T23:30:02.750Z,101885.94
2022-11-30T23:35:06.867Z,101894.38
2022-11-30T23:40:13.000Z,101893.81
2022-11-30T23:45:16.617Z,101894.31
2022-11-30T23:50:20.169Z,101893.94
2022-11-30T23:55:25.093Z,101896.22
